createdAt,value
2022-09-15T00:00:20.062Z,0.00
2022-09-15T00:01:20.127Z,0.00
2022-09-15T00:02:20.348Z,0.00
2022-09-15T00:03:20.233Z,0.00
2022-09-15T00:04:20.094Z,0.00
2022-09-15T00:05:20.580Z,0.00
2022-09-15T00:06:19.997Z,0.00
2022-09-15T00:07:19.956Z,0.00
2022-09-15T00:08:19.947Z,0.00
2022-09-15T00:09:20.015Z,0.00
2022-09-15T00:10:19.971Z,0.00
2022-09-15T00:11:20.910Z,0.00
2022-09-15T00:12:19.899Z,0.00
2022-09-15T00:13:19.928Z,0.00
2022-09-15T00:14:19.855Z,0.00
2022-09-15T00:15:19.892Z,0.00
2022-09-15T00:16:20.009Z,0.00
2022-09-15T00:17:19.808Z,0.00
2022-09-15T00:18:19.849Z,0.00
2022-09-15T00:19:19.879Z,0.00
2022-09-15T00:20:19.791Z,0.00
2022-09-15T00:21:19.923Z,0.00
2022-09-15T00:22:21.134Z,0.00
2022-09-15T00:23:19.768Z,0.00
2022-09-15T00:24:19.738Z,0.00
2022-09-15T00:25:19.731Z,0.00
2022-09-15T00:26:19.812Z,0.00
2022-09-15T00:27:19.705Z,0.00
2022-09-15T00:28:19.749Z,0.00
2022-09-15T00:29:19.678Z,0.00
2022-09-15T00:30:19.677Z,0.00
2022-09-15T00:31:19.692Z,0.00
2022-09-15T00:32:19.647Z,0.00
2022-09-15T00:33:19.634Z,0.00
2022-09-15T00:34:19.885Z,0.00
2022-09-15T00:35:19.666Z,0.00
2022-09-15T00:36:19.607Z,0.00
2022-09-15T00:37:19.589Z,0.00
2022-09-15T00:38:19.606Z,0.00
2022-09-15T00:39:19.563Z,0.00
2022-09-15T00:40:19.654Z,0.00
2022-09-15T00:41:19.558Z,0.00
2022-09-15T00:42:19.534Z,0.00
2022-09-15T00:43:19.523Z,0.00
2022-09-15T00:44:20.741Z,0.00
2022-09-15T00:45:19.501Z,0.00
2022-09-15T00:46:19.568Z,0.00
2022-09-15T00:47:20.099Z,0.00
2022-09-15T00:48:19.459Z,0.00
2022-09-15T00:49:19.443Z,0.00
2022-09-15T00:50:19.507Z,0.00
2022-09-15T00:51:19.532Z,0.00
2022-09-15T00:52:19.582Z,0.00
2022-09-15T00:53:19.445Z,0.00
2022-09-15T00:54:19.434Z,0.00
2022-09-15T00:55:19.459Z,0.00
2022-09-15T00:56:24.203Z,0.00
2022-09-15T00:57:19.459Z,0.00
2022-09-15T00:58:19.617Z,0.00
2022-09-15T00:59:19.374Z,0.00
2022-09-15T01:00:19.329Z,0.00
2022-09-15T01:01:19.502Z,0.00
2022-09-15T01:02:19.388Z,0.00
2022-09-15T01:03:19.391Z,0.00
2022-09-15T01:04:19.412Z,0.00
2022-09-15T01:05:20.162Z,0.00
2022-09-15T01:06:19.278Z,0.00
2022-09-15T01:07:19.272Z,0.00
2022-09-15T01:08:19.238Z,0.00
2022-09-15T01:09:19.261Z,0.00
2022-09-15T01:10:19.243Z,0.00
2022-09-15T01:11:19.234Z,0.00
2022-09-15T01:12:19.237Z,0.00
2022-09-15T01:13:19.202Z,0.00
2022-09-15T01:14:19.178Z,0.00
2022-09-15T01:15:19.188Z,0.00
2022-09-15T01:16:20.194Z,0.00
2022-09-15T01:17:19.150Z,0.00
2022-09-15T01:18:19.123Z,0.00
2022-09-15T01:19:19.151Z,0.00
2022-09-15T01:20:19.305Z,0.00
2022-09-15T01:21:19.203Z,0.00
2022-09-15T01:22:19.176Z,0.00
2022-09-15T01:23:19.082Z,0.00
2022-09-15T01:24:19.066Z,0.00
2022-09-15T01:25:19.043Z,0.00
2022-09-15T01:26:19.035Z,0.00
2022-09-15T01:27:41.112Z,0.00
2022-09-15T01:28:19.073Z,0.00
2022-09-15T01:29:21.253Z,0.00
2022-09-15T01:30:18.988Z,0.00
2022-09-15T01:31:19.050Z,0.00
2022-09-15T01:32:18.963Z,0.00
2022-09-15T01:33:18.961Z,0.00
2022-09-15T01:34:18.982Z,0.00
2022-09-15T01:35:18.938Z,0.00
2022-09-15T01:36:18.923Z,0.00
2022-09-15T01:37:18.906Z,0.00
2022-09-15T01:38:18.890Z,0.00
2022-09-15T01:39:18.884Z,0.00
2022-09-15T01:40:18.988Z,0.00
2022-09-15T01:41:18.886Z,0.00
2022-09-15T01:42:18.840Z,0.00
2022-09-15T01:43:18.841Z,0.00
2022-09-15T01:44:18.829Z,0.00
2022-09-15T01:45:18.830Z,0.00
2022-09-15T01:46:18.942Z,0.00
2022-09-15T01:47:18.795Z,0.00
2022-09-15T01:48:18.776Z,0.00
2022-09-15T01:49:18.780Z,0.00
2022-09-15T01:50:18.757Z,0.00
2022-09-15T01:51:18.759Z,0.00
2022-09-15T01:52:18.776Z,0.00
2022-09-15T01:53:18.741Z,0.00
2022-09-15T01:54:18.709Z,0.00
2022-09-15T01:55:18.706Z,0.00
2022-09-15T01:56:18.735Z,0.00
2022-09-15T01:57:18.718Z,0.00
2022-09-15T01:58:18.788Z,0.00
2022-09-15T01:59:18.693Z,0.00
2022-09-15T02:00:18.674Z,0.00
2022-09-15T02:01:18.693Z,0.00
2022-09-15T02:02:18.660Z,0.00
2022-09-15T02:03:18.643Z,0.00
2022-09-15T02:04:18.652Z,0.00
2022-09-15T02:05:18.615Z,0.00
2022-09-15T02:06:18.596Z,0.00
2022-09-15T02:07:18.580Z,0.00
2022-09-15T02:08:18.602Z,0.00
2022-09-15T02:09:18.576Z,0.00
2022-09-15T02:10:18.647Z,0.00
2022-09-15T02:11:18.534Z,0.00
2022-09-15T02:12:18.569Z,0.00
2022-09-15T02:13:18.570Z,0.00
2022-09-15T02:14:18.585Z,0.00
2022-09-15T02:15:18.544Z,0.00
2022-09-15T02:16:18.551Z,0.00
2022-09-15T02:17:18.458Z,0.00
2022-09-15T02:18:18.443Z,0.00
2022-09-15T02:19:18.429Z,0.00
2022-09-15T02:20:18.424Z,0.00
2022-09-15T02:21:18.425Z,0.00
2022-09-15T02:22:18.428Z,0.00
2022-09-15T02:23:18.419Z,0.00
2022-09-15T02:24:18.387Z,0.00
2022-09-15T02:25:18.377Z,0.00
2022-09-15T02:26:18.347Z,0.00
2022-09-15T02:27:18.345Z,0.00
2022-09-15T02:28:18.377Z,0.00
2022-09-15T02:29:18.320Z,0.00
2022-09-15T02:30:18.313Z,0.00
2022-09-15T02:31:18.341Z,0.00
2022-09-15T02:32:18.284Z,0.00
2022-09-15T02:33:18.319Z,0.00
2022-09-15T02:34:18.378Z,0.00
2022-09-15T02:35:18.249Z,0.00
2022-09-15T02:36:18.236Z,0.00
2022-09-15T02:37:18.227Z,0.00
2022-09-15T02:38:18.218Z,0.00
2022-09-15T02:39:18.315Z,0.00
2022-09-15T02:40:18.454Z,0.00
2022-09-15T02:41:18.245Z,0.00
2022-09-15T02:42:18.288Z,0.00
2022-09-15T02:43:18.275Z,0.00
2022-09-15T02:44:18.228Z,0.00
2022-09-15T02:45:18.395Z,0.00
2022-09-15T02:46:18.252Z,0.00
2022-09-15T02:47:18.208Z,0.00
2022-09-15T02:48:18.237Z,0.00
2022-09-15T02:49:18.416Z,0.00
2022-09-15T02:50:18.187Z,0.00
2022-09-15T02:51:18.116Z,0.00
2022-09-15T02:52:18.224Z,0.00
2022-09-15T02:53:18.081Z,0.00
2022-09-15T02:54:18.050Z,0.00
2022-09-15T02:55:18.032Z,0.00
2022-09-15T02:56:18.006Z,0.00
2022-09-15T02:57:18.003Z,0.00
2022-09-15T02:58:18.064Z,0.00
2022-09-15T02:59:17.973Z,0.00
2022-09-15T03:00:17.964Z,0.00
2022-09-15T03:01:18.028Z,0.00
2022-09-15T03:02:17.988Z,0.00
2022-09-15T03:03:17.947Z,0.00
2022-09-15T03:04:17.966Z,0.00
2022-09-15T03:05:17.908Z,0.00
2022-09-15T03:06:17.909Z,0.00
2022-09-15T03:07:17.886Z,0.00
2022-09-15T03:08:17.879Z,0.00
2022-09-15T03:09:17.866Z,0.00
2022-09-15T03:10:17.883Z,0.00
2022-09-15T03:11:17.847Z,0.00
2022-09-15T03:12:17.831Z,0.00
2022-09-15T03:13:17.819Z,0.00
2022-09-15T03:14:17.805Z,0.00
2022-09-15T03:15:17.816Z,0.00
2022-09-15T03:16:17.890Z,0.00
2022-09-15T03:17:17.767Z,0.00
2022-09-15T03:18:17.756Z,0.00
2022-09-15T03:19:17.744Z,0.00
2022-09-15T03:20:17.729Z,0.00
2022-09-15T03:21:17.731Z,0.00
2022-09-15T03:22:17.757Z,0.00
2022-09-15T03:23:17.708Z,0.00
2022-09-15T03:24:17.700Z,0.00
2022-09-15T03:25:17.680Z,0.00
2022-09-15T03:26:17.668Z,0.00
2022-09-15T03:27:17.662Z,0.00
2022-09-15T03:28:17.673Z,0.00
2022-09-15T03:29:17.636Z,0.00
2022-09-15T03:30:17.625Z,0.00
2022-09-15T03:31:17.645Z,0.00
2022-09-15T03:32:17.640Z,0.00
2022-09-15T03:33:17.605Z,0.00
2022-09-15T03:34:17.608Z,0.00
2022-09-15T03:35:17.567Z,0.00
2022-09-15T03:36:17.556Z,0.00
2022-09-15T03:37:17.545Z,0.00
2022-09-15T03:38:17.525Z,0.00
2022-09-15T03:39:17.527Z,0.00
2022-09-15T03:40:17.694Z,0.00
2022-09-15T03:41:17.494Z,0.00
2022-09-15T03:42:17.489Z,0.00
2022-09-15T03:43:18.801Z,0.00
2022-09-15T03:44:17.457Z,0.00
2022-09-15T03:45:17.472Z,0.00
2022-09-15T03:46:17.518Z,0.00
2022-09-15T03:47:17.430Z,0.00
2022-09-15T03:48:17.421Z,0.00
2022-09-15T03:49:17.404Z,0.00
2022-09-15T03:50:17.400Z,0.00
2022-09-15T03:51:17.389Z,0.00
2022-09-15T03:52:17.402Z,0.00
2022-09-15T03:53:17.401Z,0.00
2022-09-15T03:54:17.354Z,0.00
2022-09-15T03:55:17.354Z,0.00
2022-09-15T03:56:17.333Z,0.00
2022-09-15T03:57:17.327Z,0.00
2022-09-15T03:58:17.348Z,0.00
2022-09-15T03:59:17.292Z,0.00
2022-09-15T04:00:17.284Z,0.00
2022-09-15T04:01:17.323Z,0.00
2022-09-15T04:02:17.310Z,0.00
2022-09-15T04:03:17.254Z,0.00
2022-09-15T04:04:17.268Z,0.00
2022-09-15T04:05:17.232Z,0.00
2022-09-15T04:06:17.214Z,0.00
2022-09-15T04:07:17.209Z,0.00
2022-09-15T04:08:17.201Z,0.00
2022-09-15T04:09:17.198Z,0.00
2022-09-15T04:10:17.632Z,0.00
2022-09-15T04:11:17.170Z,0.00
2022-09-15T04:12:17.142Z,0.00
2022-09-15T04:13:17.147Z,0.00
2022-09-15T04:14:17.124Z,0.00
2022-09-15T04:15:17.148Z,0.00
2022-09-15T04:16:17.208Z,0.00
2022-09-15T04:17:17.091Z,0.00
2022-09-15T04:18:17.078Z,0.00
2022-09-15T04:19:17.068Z,0.00
2022-09-15T04:20:17.054Z,0.00
2022-09-15T04:21:17.085Z,0.00
2022-09-15T04:22:17.972Z,0.00
2022-09-15T04:23:17.022Z,0.00
2022-09-15T04:24:17.014Z,0.00
2022-09-15T04:25:17.009Z,0.00
2022-09-15T04:26:16.997Z,0.00
2022-09-15T04:27:17.064Z,0.00
2022-09-15T04:28:16.969Z,4.00
2022-09-15T04:29:17.002Z,4.00
2022-09-15T04:30:16.945Z,0.00
2022-09-15T04:31:16.984Z,4.00
2022-09-15T04:32:16.915Z,4.00
2022-09-15T04:33:16.956Z,4.00
2022-09-15T04:34:16.889Z,4.00
2022-09-15T04:35:16.958Z,4.00
2022-09-15T04:36:16.876Z,8.00
2022-09-15T04:37:16.864Z,8.00
2022-09-15T04:38:16.844Z,12.00
2022-09-15T04:39:16.874Z,12.00
2022-09-15T04:40:16.948Z,16.00
2022-09-15T04:41:16.823Z,20.00
2022-09-15T04:42:16.805Z,24.00
2022-09-15T04:43:16.792Z,24.00
2022-09-15T04:44:16.785Z,32.00
2022-09-15T04:45:17.239Z,36.00
2022-09-15T04:46:16.914Z,44.00
2022-09-15T04:47:16.744Z,52.00
2022-09-15T04:48:16.737Z,56.00
2022-09-15T04:49:16.726Z,68.00
2022-09-15T04:50:16.705Z,80.00
2022-09-15T04:51:16.740Z,92.00
2022-09-15T04:52:16.684Z,100.00
2022-09-15T04:53:16.677Z,116.00
2022-09-15T04:54:16.662Z,128.00
2022-09-15T04:55:16.675Z,144.00
2022-09-15T04:56:16.642Z,160.00
2022-09-15T04:57:16.671Z,180.00
2022-09-15T04:58:16.624Z,200.00
2022-09-15T04:59:16.610Z,220.00
2022-09-15T05:00:16.608Z,240.00
2022-09-15T05:01:16.664Z,260.00
2022-09-15T05:02:16.703Z,280.00
2022-09-15T05:03:16.610Z,304.00
2022-09-15T05:04:16.546Z,328.00
2022-09-15T05:05:16.553Z,352.00
2022-09-15T05:06:16.543Z,380.00
2022-09-15T05:07:16.514Z,408.00
2022-09-15T05:08:16.499Z,444.00
2022-09-15T05:09:16.529Z,476.00
2022-09-15T05:10:16.486Z,508.00
2022-09-15T05:11:16.473Z,544.00
2022-09-15T05:12:16.472Z,580.00
2022-09-15T05:13:16.490Z,620.00
2022-09-15T05:14:16.442Z,672.00
2022-09-15T05:15:16.459Z,744.00
2022-09-15T05:16:16.469Z,856.00
2022-09-15T05:17:16.403Z,956.00
2022-09-15T05:18:16.403Z,1008.00
2022-09-15T05:19:16.385Z,996.00
2022-09-15T05:20:16.366Z,992.00
2022-09-15T05:21:16.405Z,964.00
2022-09-15T05:22:16.367Z,976.00
2022-09-15T05:23:16.335Z,1020.00
2022-09-15T05:24:16.327Z,1088.00
2022-09-15T05:25:16.343Z,1128.00
2022-09-15T05:26:16.308Z,1176.00
2022-09-15T05:27:16.329Z,1180.00
2022-09-15T05:28:16.283Z,1172.00
2022-09-15T05:29:22.339Z,1184.00
2022-09-15T05:30:37.737Z,1172.00
2022-09-15T05:32:26.718Z,1356.00
2022-09-15T05:33:27.681Z,1392.00
2022-09-15T05:34:27.662Z,1492.00
2022-09-15T05:35:27.653Z,1584.00
2022-09-15T05:36:27.694Z,1628.00
2022-09-15T05:37:27.678Z,1540.00
2022-09-15T05:38:27.620Z,1420.00
2022-09-15T05:39:27.607Z,1292.00
2022-09-15T05:40:27.667Z,1164.00
2022-09-15T05:41:27.586Z,940.00
2022-09-15T05:42:27.613Z,736.00
2022-09-15T05:43:27.600Z,632.00
2022-09-15T05:44:27.545Z,616.00
2022-09-15T05:45:27.540Z,596.00
2022-09-15T05:46:27.650Z,720.00
2022-09-15T05:47:27.520Z,880.00
2022-09-15T05:48:27.503Z,1044.00
2022-09-15T05:49:27.581Z,1228.00
2022-09-15T05:50:27.477Z,1396.00
2022-09-15T05:51:27.480Z,1500.00
2022-09-15T05:52:27.463Z,1516.00
2022-09-15T05:53:27.455Z,1472.00
2022-09-15T05:54:27.450Z,1516.00
2022-09-15T05:55:27.477Z,1616.00
2022-09-15T05:56:27.423Z,1832.00
2022-09-15T05:57:27.665Z,2036.00
2022-09-15T05:58:27.392Z,2152.00
2022-09-15T05:59:27.386Z,2172.00
2022-09-15T06:00:27.420Z,2220.00
2022-09-15T06:01:27.560Z,2332.00
2022-09-15T06:02:27.396Z,2544.00
2022-09-15T06:03:30.774Z,2752.00
2022-09-15T06:04:27.319Z,2772.00
2022-09-15T06:05:27.323Z,2576.00
2022-09-15T06:06:27.297Z,2524.00
2022-09-15T06:07:27.324Z,2696.00
2022-09-15T06:08:27.276Z,2896.00
2022-09-15T06:09:27.267Z,3116.00
2022-09-15T06:10:27.307Z,3192.00
2022-09-15T06:11:27.244Z,3072.00
2022-09-15T06:12:27.234Z,2912.00
2022-09-15T06:13:27.255Z,2348.00
2022-09-15T06:14:27.210Z,2000.00
2022-09-15T06:15:27.210Z,1504.00
2022-09-15T06:16:27.249Z,1140.00
2022-09-15T06:17:27.182Z,1164.00
2022-09-15T06:18:27.166Z,1164.00
2022-09-15T06:19:27.204Z,1156.00
2022-09-15T06:20:27.331Z,1064.00
2022-09-15T06:21:27.160Z,1052.00
2022-09-15T06:22:27.133Z,1004.00
2022-09-15T06:23:27.121Z,924.00
2022-09-15T06:24:27.130Z,1112.00
2022-09-15T06:25:27.120Z,1252.00
2022-09-15T06:26:27.074Z,1628.00
2022-09-15T06:27:27.065Z,2032.00
2022-09-15T06:28:27.067Z,2464.00
2022-09-15T06:29:27.043Z,2812.00
2022-09-15T06:30:27.028Z,3024.00
2022-09-15T06:31:27.118Z,3232.00
2022-09-15T06:32:27.012Z,3328.00
2022-09-15T06:33:27.022Z,3380.00
2022-09-15T06:34:26.979Z,3484.00
2022-09-15T06:35:26.988Z,3760.00
2022-09-15T06:36:26.960Z,3920.00
2022-09-15T06:37:27.003Z,4032.00
2022-09-15T06:38:26.936Z,4116.00
2022-09-15T06:39:26.931Z,4136.00
2022-09-15T06:40:27.175Z,4180.00
2022-09-15T06:41:26.914Z,4320.00
2022-09-15T06:42:26.896Z,4732.00
2022-09-15T06:43:27.008Z,5232.00
2022-09-15T06:44:26.866Z,5336.00
2022-09-15T06:45:26.863Z,5288.00
2022-09-15T06:46:26.889Z,4980.00
2022-09-15T06:47:26.832Z,4504.00
2022-09-15T06:48:26.821Z,4048.00
2022-09-15T06:49:26.883Z,3660.00
2022-09-15T06:50:26.799Z,3724.00
2022-09-15T06:51:26.790Z,4472.00
2022-09-15T06:52:26.777Z,5824.00
2022-09-15T06:53:26.763Z,6176.00
2022-09-15T06:54:26.764Z,6044.00
2022-09-15T06:55:26.782Z,5760.00
2022-09-15T06:56:26.732Z,6116.00
2022-09-15T06:57:26.721Z,6248.00
2022-09-15T06:58:26.707Z,5528.00
2022-09-15T06:59:26.703Z,5056.00
2022-09-15T07:00:26.694Z,5004.00
2022-09-15T07:01:26.711Z,5160.00
2022-09-15T07:02:26.822Z,5052.00
2022-09-15T07:03:26.830Z,5084.00
2022-09-15T07:04:26.641Z,4984.00
2022-09-15T07:05:26.632Z,5152.00
2022-09-15T07:06:26.615Z,5240.00
2022-09-15T07:07:26.643Z,5448.00
2022-09-15T07:08:26.592Z,5720.00
2022-09-15T07:09:26.588Z,6100.00
2022-09-15T07:10:26.653Z,6408.00
2022-09-15T07:11:26.576Z,6420.00
2022-09-15T07:12:26.552Z,5740.00
2022-09-15T07:13:26.587Z,5324.00
2022-09-15T07:14:26.527Z,5044.00
2022-09-15T07:15:26.523Z,4900.00
2022-09-15T07:16:26.553Z,4876.00
2022-09-15T07:17:26.496Z,4880.00
2022-09-15T07:18:26.494Z,5004.00
2022-09-15T07:19:26.497Z,5040.00
2022-09-15T07:20:26.455Z,5352.00
2022-09-15T07:21:26.445Z,5124.00
2022-09-15T07:22:26.438Z,5420.00
2022-09-15T07:23:26.420Z,5860.00
2022-09-15T07:24:26.415Z,6700.00
2022-09-15T07:25:26.438Z,7692.00
2022-09-15T07:26:26.389Z,9764.00
2022-09-15T07:27:26.382Z,11552.00
2022-09-15T07:28:26.366Z,11508.00
2022-09-15T07:29:26.360Z,12032.00
2022-09-15T07:30:26.349Z,10872.00
2022-09-15T07:31:26.403Z,9672.00
2022-09-15T07:32:26.320Z,8732.00
2022-09-15T07:33:26.321Z,7932.00
2022-09-15T07:34:26.295Z,7196.00
2022-09-15T07:35:26.287Z,6660.00
2022-09-15T07:36:26.298Z,6320.00
2022-09-15T07:37:26.312Z,5804.00
2022-09-15T07:38:26.250Z,4932.00
2022-09-15T07:39:26.239Z,4328.00
2022-09-15T07:40:26.337Z,4028.00
2022-09-15T07:41:26.220Z,3684.00
2022-09-15T07:42:26.211Z,3560.00
2022-09-15T07:43:26.238Z,3596.00
2022-09-15T07:44:26.183Z,3684.00
2022-09-15T07:45:26.241Z,3804.00
2022-09-15T07:46:26.163Z,3904.00
2022-09-15T07:47:26.162Z,4020.00
2022-09-15T07:48:26.668Z,4148.00
2022-09-15T07:49:26.415Z,4212.00
2022-09-15T07:50:26.113Z,4356.00
2022-09-15T07:51:26.116Z,4380.00
2022-09-15T07:52:26.085Z,4496.00
2022-09-15T07:53:26.086Z,4656.00
2022-09-15T07:54:26.311Z,4864.00
2022-09-15T07:55:26.147Z,5140.00
2022-09-15T07:56:26.042Z,5452.00
2022-09-15T07:57:26.037Z,5708.00
2022-09-15T07:58:26.025Z,5832.00
2022-09-15T07:59:26.007Z,5820.00
2022-09-15T08:00:26.065Z,5872.00
2022-09-15T08:01:26.088Z,5988.00
2022-09-15T08:02:26.057Z,6120.00
2022-09-15T08:03:25.967Z,6984.00
2022-09-15T08:04:25.950Z,7968.00
2022-09-15T08:05:25.950Z,6296.00
2022-09-15T08:06:25.931Z,6080.00
2022-09-15T08:07:25.972Z,6440.00
2022-09-15T08:08:26.221Z,6008.00
2022-09-15T08:09:25.906Z,6684.00
2022-09-15T08:10:25.900Z,6844.00
2022-09-15T08:11:25.934Z,6268.00
2022-09-15T08:12:25.873Z,5140.00
2022-09-15T08:13:25.898Z,5336.00
2022-09-15T08:14:25.843Z,5856.00
2022-09-15T08:15:25.829Z,5968.00
2022-09-15T08:16:25.894Z,6048.00
2022-09-15T08:17:25.807Z,5108.00
2022-09-15T08:18:25.798Z,4944.00
2022-09-15T08:19:25.825Z,5116.00
2022-09-15T08:20:25.765Z,5548.00
2022-09-15T08:21:25.767Z,5920.00
2022-09-15T08:22:25.744Z,6216.00
2022-09-15T08:23:25.738Z,6696.00
2022-09-15T08:24:25.725Z,7280.00
2022-09-15T08:25:25.808Z,8048.00
2022-09-15T08:26:25.703Z,9132.00
2022-09-15T08:27:25.690Z,10328.00
2022-09-15T08:28:25.685Z,11288.00
2022-09-15T08:29:25.674Z,11756.00
2022-09-15T08:30:25.659Z,11808.00
2022-09-15T08:31:25.717Z,12020.00
2022-09-15T08:32:25.637Z,12180.00
2022-09-15T08:33:25.619Z,11908.00
2022-09-15T08:34:25.622Z,10824.00
2022-09-15T08:35:25.605Z,10152.00
2022-09-15T08:36:25.640Z,9956.00
2022-09-15T08:37:25.610Z,10592.00
2022-09-15T08:38:25.574Z,10232.00
2022-09-15T08:39:25.559Z,9404.00
2022-09-15T08:40:25.566Z,9536.00
2022-09-15T08:41:25.532Z,9548.00
2022-09-15T08:42:25.543Z,9192.00
2022-09-15T08:43:25.543Z,8212.00
2022-09-15T08:44:25.518Z,7828.00
2022-09-15T08:45:25.494Z,7708.00
2022-09-15T08:46:25.562Z,8044.00
2022-09-15T08:47:25.460Z,9500.00
2022-09-15T08:48:25.450Z,11224.00
2022-09-15T08:49:41.204Z,13448.00
2022-09-15T08:50:25.432Z,15500.00
2022-09-15T08:51:25.420Z,16864.00
2022-09-15T08:52:25.414Z,17312.00
2022-09-15T08:53:25.398Z,16928.00
2022-09-15T08:54:25.428Z,15184.00
2022-09-15T08:55:25.438Z,13916.00
2022-09-15T08:56:25.374Z,13008.00
2022-09-15T08:57:25.353Z,11644.00
2022-09-15T08:58:25.342Z,10520.00
2022-09-15T08:59:25.340Z,9444.00
2022-09-15T09:00:25.328Z,8432.00
2022-09-15T09:01:25.492Z,8236.00
2022-09-15T09:02:25.359Z,9228.00
2022-09-15T09:03:25.293Z,10992.00
2022-09-15T09:04:25.269Z,12840.00
2022-09-15T09:05:25.258Z,12628.00
2022-09-15T09:06:25.265Z,10268.00
2022-09-15T09:07:25.268Z,6992.00
2022-09-15T09:08:25.235Z,5440.00
2022-09-15T09:09:25.214Z,5872.00
2022-09-15T09:10:25.200Z,6832.00
2022-09-15T09:11:25.210Z,6972.00
2022-09-15T09:12:25.241Z,6784.00
2022-09-15T09:13:25.210Z,7480.00
2022-09-15T09:14:25.160Z,8108.00
2022-09-15T09:15:25.187Z,9240.00
2022-09-15T09:16:25.141Z,9516.00
2022-09-15T09:17:25.127Z,7828.00
2022-09-15T09:18:25.133Z,7316.00
2022-09-15T09:19:27.985Z,8740.00
2022-09-15T09:20:25.099Z,9508.00
2022-09-15T09:21:25.074Z,9560.00
2022-09-15T09:22:25.088Z,9396.00
2022-09-15T09:23:25.051Z,8828.00
2022-09-15T09:24:25.047Z,8248.00
2022-09-15T09:25:28.020Z,8756.00
2022-09-15T09:26:25.045Z,8684.00
2022-09-15T09:27:25.020Z,8320.00
2022-09-15T09:28:25.001Z,7760.00
2022-09-15T09:29:24.988Z,7504.00
2022-09-15T09:30:24.981Z,7636.00
2022-09-15T09:31:25.110Z,7224.00
2022-09-15T09:32:25.073Z,7440.00
2022-09-15T09:33:24.939Z,8432.00
2022-09-15T09:34:24.942Z,10340.00
2022-09-15T09:35:24.926Z,12144.00
2022-09-15T09:36:24.922Z,14984.00
2022-09-15T09:37:24.931Z,17100.00
2022-09-15T09:38:24.890Z,15184.00
2022-09-15T09:39:24.871Z,11072.00
2022-09-15T09:40:24.933Z,8756.00
2022-09-15T09:41:24.853Z,9644.00
2022-09-15T09:42:24.957Z,12396.00
2022-09-15T09:43:25.126Z,13420.00
2022-09-15T09:44:24.827Z,13868.00
2022-09-15T09:45:24.816Z,15796.00
2022-09-15T09:46:24.850Z,17128.00
2022-09-15T09:47:24.784Z,18240.00
2022-09-15T09:48:24.787Z,18368.00
2022-09-15T09:49:24.800Z,17504.00
2022-09-15T09:50:24.750Z,15460.00
2022-09-15T09:51:24.735Z,12960.00
2022-09-15T09:52:24.834Z,10688.00
2022-09-15T09:53:25.737Z,9092.00
2022-09-15T09:54:24.708Z,7648.00
2022-09-15T09:55:24.742Z,7276.00
2022-09-15T09:56:24.684Z,7532.00
2022-09-15T09:57:24.675Z,8448.00
2022-09-15T09:58:24.655Z,7748.00
2022-09-15T09:59:24.640Z,8288.00
2022-09-15T10:00:24.635Z,9736.00
2022-09-15T10:01:24.830Z,11384.00
2022-09-15T10:02:24.613Z,12848.00
2022-09-15T10:03:28.033Z,13120.00
2022-09-15T10:04:24.679Z,12400.00
2022-09-15T10:05:24.575Z,11208.00
2022-09-15T10:06:24.571Z,9700.00
2022-09-15T10:07:24.624Z,8004.00
2022-09-15T10:08:24.551Z,6944.00
2022-09-15T10:09:24.535Z,7192.00
2022-09-15T10:10:24.522Z,7576.00
2022-09-15T10:11:24.506Z,8284.00
2022-09-15T10:12:24.501Z,9096.00
2022-09-15T10:13:24.515Z,10056.00
2022-09-15T10:14:24.484Z,11224.00
2022-09-15T10:15:24.475Z,12712.00
2022-09-15T10:16:25.273Z,14628.00
2022-09-15T10:17:24.442Z,16872.00
2022-09-15T10:18:24.444Z,19552.00
2022-09-15T10:19:24.454Z,19328.00
2022-09-15T10:20:24.412Z,18432.00
2022-09-15T10:21:24.392Z,17344.00
2022-09-15T10:22:24.393Z,16868.00
2022-09-15T10:23:24.372Z,15584.00
2022-09-15T10:24:24.373Z,13548.00
2022-09-15T10:25:24.387Z,12056.00
2022-09-15T10:26:24.389Z,10852.00
2022-09-15T10:27:24.330Z,10368.00
2022-09-15T10:28:24.323Z,10556.00
2022-09-15T10:29:24.320Z,10472.00
2022-09-15T10:30:24.292Z,10400.00
2022-09-15T10:31:24.382Z,10192.00
2022-09-15T10:32:25.400Z,10536.00
2022-09-15T10:33:24.259Z,11136.00
2022-09-15T10:34:24.250Z,11872.00
2022-09-15T10:35:24.239Z,12712.00
2022-09-15T10:36:24.237Z,13604.00
2022-09-15T10:37:24.261Z,14892.00
2022-09-15T10:38:24.200Z,16276.00
2022-09-15T10:39:24.191Z,16988.00
2022-09-15T10:40:24.205Z,17664.00
2022-09-15T10:41:24.171Z,19040.00
2022-09-15T10:42:24.159Z,20768.00
2022-09-15T10:43:24.178Z,21440.00
2022-09-15T10:44:24.133Z,21536.00
2022-09-15T10:45:24.164Z,21568.00
2022-09-15T10:46:24.218Z,21184.00
2022-09-15T10:47:24.102Z,19584.00
2022-09-15T10:48:24.101Z,20160.00
2022-09-15T10:49:24.378Z,25760.00
2022-09-15T10:50:24.078Z,25152.00
2022-09-15T10:51:24.053Z,23552.00
2022-09-15T10:52:24.044Z,22112.00
2022-09-15T10:53:24.040Z,19680.00
2022-09-15T10:54:24.027Z,16768.00
2022-09-15T10:55:42.214Z,13456.00
2022-09-15T10:56:24.012Z,11576.00
2022-09-15T10:57:24.042Z,11108.00
2022-09-15T10:58:23.982Z,11872.00
2022-09-15T10:59:23.961Z,11592.00
2022-09-15T11:00:23.955Z,11948.00
2022-09-15T11:01:24.051Z,12452.00
2022-09-15T11:02:23.996Z,12936.00
2022-09-15T11:03:23.956Z,13164.00
2022-09-15T11:04:23.911Z,12676.00
2022-09-15T11:05:23.900Z,13180.00
2022-09-15T11:06:23.893Z,14468.00
2022-09-15T11:07:23.964Z,15852.00
2022-09-15T11:08:23.864Z,17952.00
2022-09-15T11:09:23.848Z,18880.00
2022-09-15T11:10:23.842Z,18816.00
2022-09-15T11:11:23.833Z,19584.00
2022-09-15T11:12:28.407Z,19520.00
2022-09-15T11:13:23.870Z,19552.00
2022-09-15T11:14:23.805Z,18528.00
2022-09-15T11:15:23.783Z,18560.00
2022-09-15T11:16:23.839Z,18528.00
2022-09-15T11:17:23.766Z,19168.00
2022-09-15T11:18:23.763Z,19360.00
2022-09-15T11:19:23.791Z,19008.00
2022-09-15T11:20:23.735Z,18816.00
2022-09-15T11:21:23.718Z,18336.00
2022-09-15T11:22:23.719Z,17824.00
2022-09-15T11:23:23.696Z,17792.00
2022-09-15T11:24:23.689Z,17368.00
2022-09-15T11:25:23.703Z,17020.00
2022-09-15T11:26:23.711Z,16924.00
2022-09-15T11:27:23.647Z,17628.00
2022-09-15T11:28:24.649Z,18208.00
2022-09-15T11:29:23.634Z,17376.00
2022-09-15T11:30:23.620Z,16952.00
2022-09-15T11:31:23.696Z,16724.00
2022-09-15T11:32:23.594Z,16232.00
2022-09-15T11:33:23.584Z,15228.00
2022-09-15T11:34:23.570Z,14432.00
2022-09-15T11:35:23.559Z,14128.00
2022-09-15T11:36:23.558Z,15512.00
2022-09-15T11:37:23.574Z,17228.00
2022-09-15T11:38:23.528Z,19168.00
2022-09-15T11:39:23.511Z,23200.00
2022-09-15T11:40:23.534Z,23392.00
2022-09-15T11:41:23.488Z,20032.00
2022-09-15T11:42:23.480Z,15928.00
2022-09-15T11:43:23.500Z,12568.00
2022-09-15T11:44:23.459Z,14156.00
2022-09-15T11:45:23.442Z,16188.00
2022-09-15T11:46:24.451Z,17140.00
2022-09-15T11:47:23.423Z,16984.00
2022-09-15T11:48:23.442Z,18624.00
2022-09-15T11:49:23.439Z,19520.00
2022-09-15T11:50:23.392Z,15708.00
2022-09-15T11:51:23.379Z,17324.00
2022-09-15T11:52:23.365Z,26464.00
2022-09-15T11:53:23.353Z,28736.00
2022-09-15T11:54:23.346Z,26688.00
2022-09-15T11:55:23.369Z,26656.00
2022-09-15T11:56:23.323Z,23712.00
2022-09-15T11:57:23.869Z,20864.00
2022-09-15T11:58:23.299Z,20032.00
2022-09-15T11:59:23.282Z,21664.00
2022-09-15T12:00:23.277Z,21216.00
2022-09-15T12:01:23.310Z,15176.00
2022-09-15T12:02:23.339Z,12100.00
2022-09-15T12:03:23.359Z,10760.00
2022-09-15T12:04:23.489Z,10152.00
2022-09-15T12:05:23.218Z,9720.00
2022-09-15T12:06:23.210Z,9680.00
2022-09-15T12:07:23.229Z,9940.00
2022-09-15T12:08:23.196Z,10240.00
2022-09-15T12:09:23.180Z,10440.00
2022-09-15T12:10:23.194Z,10468.00
2022-09-15T12:11:23.162Z,10796.00
2022-09-15T12:12:23.194Z,11136.00
2022-09-15T12:13:23.188Z,12260.00
2022-09-15T12:14:23.116Z,14164.00
2022-09-15T12:15:23.103Z,15848.00
2022-09-15T12:16:23.146Z,17088.00
2022-09-15T12:17:23.148Z,18048.00
2022-09-15T12:18:38.187Z,18176.00
2022-09-15T12:19:23.099Z,18848.00
2022-09-15T12:20:23.053Z,19744.00
2022-09-15T12:21:23.036Z,20832.00
2022-09-15T12:22:23.033Z,23040.00
2022-09-15T12:23:23.019Z,26336.00
2022-09-15T12:24:23.014Z,30624.00
2022-09-15T12:25:23.029Z,30144.00
2022-09-15T12:26:23.001Z,31616.00
2022-09-15T12:27:22.981Z,29312.00
2022-09-15T12:28:23.055Z,47680.00